createdAt,value
2018-01-30T00:00:13.209Z,89.23
2018-01-30T00:01:13.170Z,90.00
2018-01-30T00:02:13.155Z,89.80
2018-01-30T00:03:13.173Z,89.66
2018-01-30T00:04:13.162Z,89.56
2018-01-30T00:05:13.173Z,90.04
2018-01-30T00:06:13.156Z,89.66
2018-01-30T00:07:13.284Z,89.56
2018-01-30T00:08:13.168Z,89.56
2018-01-30T00:09:13.160Z,88.71
2018-01-30T00:10:13.156Z,89.00
2018-01-30T00:11:13.148Z,89.09
2018-01-30T00:12:13.206Z,89.66
2018-01-30T00:13:13.197Z,89.56
2018-01-30T00:14:13.156Z,89.85
2018-01-30T00:15:13.165Z,89.66
2018-01-30T00:16:13.184Z,89.18
2018-01-30T00:17:13.174Z,88.90
2018-01-30T00:18:13.187Z,88.61
2018-01-30T00:19:13.190Z,89.09
2018-01-30T00:20:13.254Z,89.18
2018-01-30T00:21:13.158Z,88.90
2018-01-30T00:22:13.176Z,88.71
2018-01-30T00:23:13.180Z,89.00
2018-01-30T00:24:13.209Z,89.00
2018-01-30T00:25:13.197Z,88.80
2018-01-30T00:26:13.182Z,88.90
2018-01-30T00:27:13.160Z,89.09
2018-01-30T00:28:13.213Z,89.09
2018-01-30T00:29:13.179Z,89.18
2018-01-30T00:30:13.190Z,89.28
2018-01-30T00:31:13.197Z,89.85
2018-01-30T00:32:13.205Z,89.47
2018-01-30T00:33:13.168Z,89.28
2018-01-30T00:34:13.178Z,89.56
2018-01-30T00:35:13.168Z,89.56
2018-01-30T00:36:13.208Z,89.66
2018-01-30T00:37:13.159Z,89.47
2018-01-30T00:38:13.163Z,89.37
2018-01-30T00:39:13.162Z,88.71
2018-01-30T00:40:13.177Z,89.09
2018-01-30T00:41:13.168Z,89.28
2018-01-30T00:42:13.198Z,89.09
2018-01-30T00:43:13.205Z,89.37
2018-01-30T00:44:13.168Z,89.28
2018-01-30T00:45:13.185Z,89.52
2018-01-30T00:46:13.204Z,89.23
2018-01-30T00:47:13.178Z,89.75
2018-01-30T00:48:13.167Z,89.33
2018-01-30T00:49:13.163Z,89.71
2018-01-30T00:50:13.192Z,90.37
2018-01-30T00:51:13.180Z,90.66
2018-01-30T00:52:13.194Z,90.37
2018-01-30T00:53:13.182Z,90.28
2018-01-30T00:54:13.171Z,89.71
2018-01-30T00:55:13.221Z,90.19
2018-01-30T00:56:13.174Z,89.71
2018-01-30T00:57:13.211Z,89.52
2018-01-30T00:58:13.227Z,89.71
2018-01-30T00:59:13.180Z,90.28
2018-01-30T01:00:13.213Z,90.75
2018-01-30T01:01:14.122Z,90.09
2018-01-30T01:02:13.222Z,89.33
2018-01-30T01:03:13.173Z,90.47
2018-01-30T01:04:13.184Z,90.37
2018-01-30T01:05:13.195Z,90.47
2018-01-30T01:06:13.191Z,90.28
2018-01-30T01:07:13.177Z,90.85
2018-01-30T01:08:13.179Z,90.56
2018-01-30T01:09:13.194Z,90.47
2018-01-30T01:10:13.200Z,90.09
2018-01-30T01:11:13.240Z,90.47
2018-01-30T01:12:13.201Z,90.56
2018-01-30T01:13:13.180Z,90.37
2018-01-30T01:14:14.124Z,90.28
2018-01-30T01:15:13.196Z,90.94
2018-01-30T01:16:13.174Z,90.85
2018-01-30T01:17:13.193Z,90.66
2018-01-30T01:18:13.212Z,90.47
2018-01-30T01:19:13.195Z,90.75
2018-01-30T01:20:13.240Z,91.23
2018-01-30T01:21:13.196Z,91.04
2018-01-30T01:22:13.171Z,91.42
2018-01-30T01:23:13.197Z,91.33
2018-01-30T01:24:13.183Z,91.33
2018-01-30T01:25:13.210Z,90.94
2018-01-30T01:26:13.185Z,91.52
2018-01-30T01:27:14.122Z,91.23
2018-01-30T01:28:13.176Z,91.52
2018-01-30T01:29:13.177Z,91.71
2018-01-30T01:30:13.189Z,91.99
2018-01-30T01:31:13.251Z,92.18
2018-01-30T01:32:14.123Z,91.52
2018-01-30T01:33:13.206Z,91.71
2018-01-30T01:34:13.178Z,91.52
2018-01-30T01:35:13.187Z,91.33
2018-01-30T01:36:13.187Z,91.52
2018-01-30T01:37:13.183Z,91.80
2018-01-30T01:38:13.184Z,90.37
2018-01-30T01:39:13.186Z,91.71
2018-01-30T01:40:13.217Z,91.52
2018-01-30T01:41:13.184Z,91.42
2018-01-30T01:42:13.214Z,91.33
2018-01-30T01:43:13.187Z,91.33
2018-01-30T01:44:13.195Z,91.04
2018-01-30T01:45:13.176Z,91.33
2018-01-30T01:46:13.207Z,91.56
2018-01-30T01:47:13.178Z,91.47
2018-01-30T01:48:13.181Z,92.23
2018-01-30T01:49:13.186Z,92.80
2018-01-30T01:50:13.194Z,92.80
2018-01-30T01:51:13.201Z,92.80
2018-01-30T01:52:13.199Z,92.61
2018-01-30T01:53:13.200Z,92.51
2018-01-30T01:54:13.197Z,92.42
2018-01-30T01:55:13.188Z,92.42
2018-01-30T01:56:13.190Z,92.51
2018-01-30T01:57:13.178Z,93.08
2018-01-30T01:58:13.183Z,93.18
2018-01-30T01:59:13.223Z,92.99
2018-01-30T02:00:13.189Z,92.90
2018-01-30T02:01:13.215Z,93.18
2018-01-30T02:02:13.226Z,93.08
2018-01-30T02:03:13.246Z,93.18
2018-01-30T02:04:13.176Z,92.71
2018-01-30T02:05:13.200Z,92.71
2018-01-30T02:06:13.220Z,93.08
2018-01-30T02:07:13.216Z,93.08
2018-01-30T02:08:13.231Z,92.85
2018-01-30T02:09:13.207Z,93.51
2018-01-30T02:10:13.253Z,94.37
2018-01-30T02:11:13.288Z,93.80
2018-01-30T02:12:13.228Z,94.37
2018-01-30T02:13:13.195Z,95.03
2018-01-30T02:14:13.209Z,94.84
2018-01-30T02:15:13.228Z,94.46
2018-01-30T02:16:13.187Z,95.41
2018-01-30T02:17:13.211Z,94.37
2018-01-30T02:18:13.232Z,94.56
2018-01-30T02:19:13.222Z,94.46
2018-01-30T02:20:13.239Z,95.03
2018-01-30T02:21:13.229Z,94.84
2018-01-30T02:22:13.205Z,95.31
2018-01-30T02:23:13.176Z,95.31
2018-01-30T02:24:13.200Z,95.31
2018-01-30T02:25:13.244Z,96.08
2018-01-30T02:26:13.247Z,95.98
2018-01-30T02:27:13.217Z,95.98
2018-01-30T02:28:13.190Z,96.36
2018-01-30T02:29:13.291Z,96.17
2018-01-30T02:30:13.196Z,96.08
2018-01-30T02:31:13.218Z,95.98
2018-01-30T02:32:13.240Z,95.98
2018-01-30T02:33:13.235Z,95.51
2018-01-30T02:34:13.239Z,95.12
2018-01-30T02:35:13.201Z,95.31
2018-01-30T02:36:13.257Z,95.41
2018-01-30T02:37:13.195Z,95.51
2018-01-30T02:38:13.178Z,95.22
2018-01-30T02:39:13.233Z,94.84
2018-01-30T02:40:13.205Z,95.03
2018-01-30T02:41:13.178Z,94.74
2018-01-30T02:42:13.241Z,95.70
2018-01-30T02:43:13.216Z,94.93
2018-01-30T02:44:13.178Z,95.31
2018-01-30T02:45:13.205Z,95.60
2018-01-30T02:46:13.188Z,95.70
2018-01-30T02:47:13.180Z,95.51
2018-01-30T02:48:13.196Z,95.31
2018-01-30T02:49:13.227Z,95.31
2018-01-30T02:50:13.214Z,95.51
2018-01-30T02:51:13.188Z,95.51
2018-01-30T02:52:13.228Z,95.70
2018-01-30T02:53:13.186Z,95.60
2018-01-30T02:54:13.199Z,95.12
2018-01-30T02:55:14.142Z,95.51
2018-01-30T02:56:13.201Z,95.89
2018-01-30T02:57:13.178Z,96.08
2018-01-30T02:58:13.220Z,95.89
2018-01-30T02:59:13.212Z,95.60
2018-01-30T03:00:13.216Z,95.27
2018-01-30T03:01:13.166Z,95.41
2018-01-30T03:02:13.193Z,94.74
2018-01-30T03:03:13.186Z,95.55
2018-01-30T03:04:13.176Z,95.60
2018-01-30T03:05:13.213Z,94.65
2018-01-30T03:06:13.207Z,94.89
2018-01-30T03:07:13.193Z,94.84
2018-01-30T03:08:13.190Z,95.41
2018-01-30T03:09:13.179Z,95.36
2018-01-30T03:10:13.171Z,95.84
2018-01-30T03:11:13.200Z,95.98
2018-01-30T03:12:13.172Z,96.50
2018-01-30T03:13:13.185Z,96.22
2018-01-30T03:14:13.166Z,96.59
2018-01-30T03:15:13.160Z,95.93
2018-01-30T03:16:13.189Z,96.12
2018-01-30T03:17:13.200Z,96.03
2018-01-30T03:18:13.203Z,96.41
2018-01-30T03:19:13.205Z,96.22
2018-01-30T03:20:13.202Z,96.41
2018-01-30T03:21:13.168Z,95.98
2018-01-30T03:22:13.173Z,95.93
2018-01-30T03:23:13.203Z,95.93
2018-01-30T03:24:13.168Z,95.84
2018-01-30T03:25:13.190Z,95.89
2018-01-30T03:26:13.174Z,95.51
2018-01-30T03:27:13.168Z,95.55
2018-01-30T03:28:13.189Z,95.27
2018-01-30T03:29:13.165Z,95.27
2018-01-30T03:30:13.173Z,95.36
2018-01-30T03:31:13.164Z,94.70
2018-01-30T03:32:13.173Z,94.79
2018-01-30T03:33:13.197Z,95.55
2018-01-30T03:34:13.211Z,95.17
2018-01-30T03:35:13.200Z,96.03
2018-01-30T03:36:13.709Z,95.93
2018-01-30T03:37:13.181Z,95.93
2018-01-30T03:38:13.202Z,96.03
2018-01-30T03:39:13.203Z,95.65
2018-01-30T03:40:13.208Z,95.65
2018-01-30T03:41:13.197Z,95.93
2018-01-30T03:42:13.160Z,96.59
2018-01-30T03:43:13.152Z,95.93
2018-01-30T03:44:13.165Z,96.12
2018-01-30T03:45:13.171Z,96.03
2018-01-30T03:46:13.219Z,96.50
2018-01-30T03:47:13.217Z,96.03
2018-01-30T03:48:13.234Z,96.12
2018-01-30T03:49:13.219Z,96.88
2018-01-30T03:50:13.217Z,96.78
2018-01-30T03:51:13.157Z,96.78
2018-01-30T03:52:13.203Z,97.36
2018-01-30T03:53:13.222Z,97.45
2018-01-30T03:54:13.174Z,97.45
2018-01-30T03:55:13.148Z,96.97
2018-01-30T03:56:13.158Z,96.78
2018-01-30T03:57:13.162Z,97.55
2018-01-30T03:58:13.159Z,97.26
2018-01-30T03:59:13.653Z,97.17
2018-01-30T04:00:13.165Z,97.36
2018-01-30T04:01:13.179Z,98.49
2018-01-30T04:02:13.177Z,97.64
2018-01-30T04:03:13.156Z,97.45
2018-01-30T04:04:13.173Z,96.88
2018-01-30T04:05:13.192Z,97.17
2018-01-30T04:06:13.143Z,97.36
2018-01-30T04:07:13.143Z,96.97
2018-01-30T04:08:13.162Z,97.17
2018-01-30T04:09:13.168Z,96.97
2018-01-30T04:10:13.151Z,97.26
2018-01-30T04:11:13.179Z,97.36
2018-01-30T04:12:13.663Z,97.26
2018-01-30T04:13:13.165Z,96.97
2018-01-30T04:14:13.157Z,96.97
2018-01-30T04:15:13.187Z,96.97
2018-01-30T04:16:13.157Z,96.78
2018-01-30T04:17:13.139Z,96.88
2018-01-30T04:18:13.141Z,96.78
2018-01-30T04:19:13.165Z,96.78
2018-01-30T04:20:13.162Z,97.07
2018-01-30T04:21:13.181Z,97.17
2018-01-30T04:22:13.153Z,97.17
2018-01-30T04:23:13.162Z,97.74
2018-01-30T04:24:13.174Z,97.74
2018-01-30T04:25:13.143Z,98.02
2018-01-30T04:26:13.181Z,97.74
2018-01-30T04:27:13.178Z,98.30
2018-01-30T04:28:13.160Z,98.49
2018-01-30T04:29:13.200Z,98.44
2018-01-30T04:30:13.672Z,98.07
2018-01-30T04:31:13.134Z,98.11
2018-01-30T04:32:13.160Z,98.30
2018-01-30T04:33:13.194Z,98.02
2018-01-30T04:34:13.155Z,98.02
2018-01-30T04:35:13.196Z,98.02
2018-01-30T04:36:13.151Z,97.45
2018-01-30T04:37:13.150Z,97.45
2018-01-30T04:38:13.150Z,97.26
2018-01-30T04:39:13.151Z,97.26
2018-01-30T04:40:13.155Z,97.26
2018-01-30T04:41:13.183Z,97.83
2018-01-30T04:42:13.164Z,97.64
2018-01-30T04:43:13.666Z,97.74
2018-01-30T04:44:13.125Z,97.55
2018-01-30T04:45:13.199Z,97.64
2018-01-30T04:46:13.169Z,97.17
2018-01-30T04:47:13.168Z,97.64
2018-01-30T04:48:13.124Z,97.17
2018-01-30T04:49:13.128Z,97.55
2018-01-30T04:50:13.131Z,97.83
2018-01-30T04:51:13.136Z,97.64
2018-01-30T04:52:13.173Z,98.49
2018-01-30T04:53:13.122Z,98.21
2018-01-30T04:54:13.122Z,98.11
2018-01-30T04:55:13.148Z,98.30
2018-01-30T04:56:13.135Z,98.16
2018-01-30T04:57:13.137Z,98.07
2018-01-30T04:58:13.117Z,98.87
2018-01-30T04:59:13.112Z,98.78
2018-01-30T05:00:13.164Z,98.78
2018-01-30T05:01:13.130Z,98.49
2018-01-30T05:02:13.120Z,98.97
2018-01-30T05:03:13.123Z,99.06
2018-01-30T05:04:13.133Z,99.06
2018-01-30T05:05:13.147Z,99.26
2018-01-30T05:06:13.117Z,98.78
2018-01-30T05:07:13.161Z,99.16
2018-01-30T05:08:13.137Z,98.87
2018-01-30T05:09:13.165Z,98.87
2018-01-30T05:10:13.110Z,98.87
2018-01-30T05:11:13.155Z,98.97
2018-01-30T05:12:13.115Z,98.97
2018-01-30T05:13:13.121Z,98.68
2018-01-30T05:14:13.112Z,98.49
2018-01-30T05:15:13.132Z,99.16
2018-01-30T05:16:13.099Z,98.97
2018-01-30T05:17:13.112Z,98.78
2018-01-30T05:18:13.116Z,98.97
2018-01-30T05:19:13.132Z,98.11
2018-01-30T05:20:13.112Z,98.30
2018-01-30T05:21:13.172Z,98.40
2018-01-30T05:22:13.120Z,98.21
2018-01-30T05:23:13.096Z,98.11
2018-01-30T05:24:13.100Z,98.59
2018-01-30T05:25:13.105Z,98.78
2018-01-30T05:26:13.087Z,99.06
2018-01-30T05:27:13.226Z,98.59
2018-01-30T05:28:13.126Z,98.87
2018-01-30T05:29:13.141Z,99.06
2018-01-30T05:30:13.110Z,98.68
2018-01-30T05:31:13.101Z,98.78
2018-01-30T05:32:13.124Z,98.68
2018-01-30T05:33:13.106Z,98.87
2018-01-30T05:34:13.101Z,98.68
2018-01-30T05:35:13.102Z,98.40
2018-01-30T05:36:13.159Z,98.59
2018-01-30T05:37:13.131Z,98.78
2018-01-30T05:38:13.118Z,98.68
2018-01-30T05:39:13.112Z,98.78
2018-01-30T05:40:13.218Z,99.06
2018-01-30T05:41:13.109Z,98.87
2018-01-30T05:42:13.091Z,98.78
2018-01-30T05:43:13.121Z,98.59
2018-01-30T05:44:13.104Z,98.68
2018-01-30T05:45:13.146Z,99.06
2018-01-30T05:46:13.129Z,99.16
2018-01-30T05:47:13.121Z,99.06
2018-01-30T05:48:13.151Z,98.87
2018-01-30T05:49:13.179Z,98.40
2018-01-30T05:50:13.130Z,98.68
2018-01-30T05:51:13.086Z,99.06
2018-01-30T05:52:13.109Z,98.87
2018-01-30T05:53:13.170Z,98.59
2018-01-30T05:54:13.093Z,98.49
2018-01-30T05:55:13.122Z,98.78
2018-01-30T05:56:13.119Z,98.78
2018-01-30T05:57:13.160Z,99.16
2018-01-30T05:58:13.121Z,99.06
2018-01-30T05:59:13.098Z,98.97
2018-01-30T06:00:13.102Z,98.49
2018-01-30T06:01:13.086Z,99.26
2018-01-30T06:02:13.082Z,99.44
2018-01-30T06:03:13.077Z,99.16
2018-01-30T06:04:13.083Z,99.54
2018-01-30T06:05:13.073Z,99.06
2018-01-30T06:06:13.091Z,99.16
2018-01-30T06:07:13.082Z,99.35
2018-01-30T06:08:13.070Z,98.87
2018-01-30T06:09:13.103Z,98.78
2018-01-30T06:10:13.102Z,98.97
2018-01-30T06:11:13.115Z,99.01
2018-01-30T06:12:13.111Z,98.97
2018-01-30T06:13:13.080Z,98.87
2018-01-30T06:14:13.178Z,98.97
2018-01-30T06:15:13.093Z,99.01
2018-01-30T06:16:13.145Z,99.01
2018-01-30T06:17:13.091Z,99.30
2018-01-30T06:18:13.071Z,99.20
2018-01-30T06:19:13.082Z,99.30
2018-01-30T06:20:13.067Z,99.30
2018-01-30T06:21:13.684Z,99.11
2018-01-30T06:22:13.059Z,98.44
2018-01-30T06:23:13.080Z,98.44
2018-01-30T06:24:13.084Z,99.11
2018-01-30T06:25:13.086Z,99.11
2018-01-30T06:26:13.080Z,99.30
2018-01-30T06:27:13.059Z,99.20
2018-01-30T06:28:13.087Z,99.58
2018-01-30T06:29:13.051Z,99.49
2018-01-30T06:30:13.066Z,99.39
2018-01-30T06:31:13.062Z,99.39
2018-01-30T06:32:13.101Z,99.87
2018-01-30T06:33:13.071Z,99.68
2018-01-30T06:34:13.690Z,99.39
2018-01-30T06:35:13.070Z,99.01
2018-01-30T06:36:13.083Z,99.11
2018-01-30T06:37:13.077Z,99.39
2018-01-30T06:38:13.087Z,99.49
2018-01-30T06:39:13.063Z,99.77
2018-01-30T06:40:13.140Z,99.49
2018-01-30T06:41:13.117Z,99.49
2018-01-30T06:42:13.061Z,99.49
2018-01-30T06:43:13.042Z,99.58
2018-01-30T06:44:13.112Z,99.20
2018-01-30T06:45:13.117Z,99.58
2018-01-30T06:46:13.132Z,99.49
2018-01-30T06:47:13.057Z,99.49
2018-01-30T06:48:13.093Z,99.58
2018-01-30T06:49:13.066Z,99.58
2018-01-30T06:50:13.240Z,99.30
2018-01-30T06:51:13.095Z,99.20
2018-01-30T06:52:13.059Z,99.77
2018-01-30T06:53:13.124Z,99.49
2018-01-30T06:54:13.056Z,99.99
2018-01-30T06:55:13.035Z,99.87
2018-01-30T06:56:13.046Z,99.99
2018-01-30T06:57:13.041Z,99.87
2018-01-30T06:58:13.073Z,99.77
2018-01-30T06:59:13.042Z,99.96
2018-01-30T07:00:13.034Z,99.77
2018-01-30T07:01:13.084Z,99.77
2018-01-30T07:02:13.056Z,99.99
2018-01-30T07:03:13.061Z,99.96
2018-01-30T07:04:13.044Z,99.99
2018-01-30T07:05:13.041Z,99.87
2018-01-30T07:06:13.031Z,99.87
2018-01-30T07:07:13.048Z,99.99
2018-01-30T07:08:13.086Z,99.99
2018-01-30T07:09:13.031Z,99.99
2018-01-30T07:10:13.178Z,99.99
2018-01-30T07:11:13.026Z,99.99
2018-01-30T07:12:13.211Z,99.99
2018-01-30T07:13:13.026Z,99.99
2018-01-30T07:14:13.036Z,99.99
2018-01-30T07:15:13.047Z,99.99
2018-01-30T07:16:13.058Z,99.99
2018-01-30T07:17:13.031Z,99.99
2018-01-30T07:18:13.093Z,99.99
2018-01-30T07:19:13.057Z,99.99
2018-01-30T07:20:13.135Z,99.99
2018-01-30T07:21:13.037Z,99.99
2018-01-30T07:22:13.119Z,99.99
2018-01-30T07:23:13.071Z,99.99
2018-01-30T07:24:13.070Z,99.99
2018-01-30T07:25:13.016Z,99.99
2018-01-30T07:26:13.032Z,99.99
2018-01-30T07:27:13.046Z,99.96
2018-01-30T07:28:13.063Z,99.99
2018-01-30T07:29:13.045Z,99.87
2018-01-30T07:30:13.018Z,99.96
2018-01-30T07:31:13.109Z,99.87
2018-01-30T07:32:13.025Z,99.49
2018-01-30T07:33:13.677Z,99.39
2018-01-30T07:34:13.014Z,99.11
2018-01-30T07:35:13.048Z,99.11
2018-01-30T07:36:13.023Z,99.20
2018-01-30T07:37:13.015Z,99.49
2018-01-30T07:38:13.068Z,99.68
2018-01-30T07:39:13.006Z,99.96
2018-01-30T07:40:13.033Z,99.58
2018-01-30T07:41:13.008Z,99.99
2018-01-30T07:42:13.072Z,99.99
2018-01-30T07:43:13.016Z,99.99
2018-01-30T07:44:13.011Z,99.99
2018-01-30T07:45:13.032Z,99.99
2018-01-30T07:46:13.040Z,99.87
2018-01-30T07:47:13.087Z,99.82
2018-01-30T07:48:13.039Z,99.99
2018-01-30T07:49:13.022Z,99.99
2018-01-30T07:50:13.065Z,99.91
2018-01-30T07:51:13.007Z,99.99
2018-01-30T07:52:13.705Z,99.91
2018-01-30T07:53:13.015Z,99.54
2018-01-30T07:54:13.002Z,99.63
2018-01-30T07:55:13.009Z,99.26
2018-01-30T07:56:13.044Z,99.44
2018-01-30T07:57:13.018Z,99.16
2018-01-30T07:58:13.048Z,98.97
2018-01-30T07:59:13.002Z,99.73
2018-01-30T08:00:13.028Z,99.44
2018-01-30T08:01:13.031Z,99.26
2018-01-30T08:02:13.055Z,98.78
2018-01-30T08:03:12.998Z,98.59
2018-01-30T08:04:13.020Z,98.97
2018-01-30T08:05:13.123Z,98.87
2018-01-30T08:06:13.012Z,98.49
2018-01-30T08:07:13.783Z,98.02
2018-01-30T08:08:12.995Z,98.87
2018-01-30T08:09:12.995Z,98.30
2018-01-30T08:10:13.055Z,98.35
2018-01-30T08:11:13.009Z,98.78
2018-01-30T08:12:13.722Z,98.97
2018-01-30T08:13:13.032Z,98.83
2018-01-30T08:14:13.024Z,98.07
2018-01-30T08:15:14.005Z,98.16
2018-01-30T08:17:13.057Z,98.68
2018-01-30T08:18:13.040Z,99.06
2018-01-30T08:19:12.992Z,99.44
2018-01-30T08:20:13.422Z,99.99
2018-01-30T08:21:13.245Z,99.99
2018-01-30T08:22:13.036Z,99.99
2018-01-30T08:23:13.037Z,99.99
2018-01-30T08:24:13.029Z,99.82
2018-01-30T08:25:12.995Z,99.54
2018-01-30T08:26:12.993Z,98.54
2018-01-30T08:27:13.016Z,99.02
2018-01-30T08:28:13.792Z,99.11
2018-01-30T08:29:13.229Z,99.02
2018-01-30T08:30:13.720Z,99.02
2018-01-30T08:31:13.717Z,98.83
2018-01-30T08:32:19.779Z,98.54
2018-01-30T08:33:13.004Z,98.35
2018-01-30T08:34:13.722Z,98.35
2018-01-30T08:35:13.106Z,97.78
2018-01-30T08:36:13.955Z,97.78
2018-01-30T08:37:13.140Z,97.31
2018-01-30T08:38:13.041Z,97.83
2018-01-30T08:39:13.268Z,96.88
2018-01-30T08:40:13.061Z,96.12
2018-01-30T08:41:13.069Z,96.22
2018-01-30T08:42:14.573Z,96.41
2018-01-30T08:43:13.132Z,95.94
2018-01-30T08:44:13.515Z,95.46
2018-01-30T08:45:13.090Z,95.65
2018-01-30T08:46:13.078Z,95.65
2018-01-30T08:47:13.061Z,94.60
2018-01-30T08:48:13.228Z,94.42
2018-01-30T08:49:13.715Z,94.70
2018-01-30T08:50:13.252Z,95.55
2018-01-30T08:51:13.116Z,95.65
2018-01-30T08:52:13.226Z,95.65
2018-01-30T08:53:13.020Z,95.46
2018-01-30T08:54:13.105Z,94.98
2018-01-30T08:55:13.066Z,94.32
2018-01-30T08:56:15.020Z,93.84
2018-01-30T08:57:13.357Z,94.13
2018-01-30T08:58:14.051Z,94.42
2018-01-30T08:59:13.062Z,94.79
2018-01-30T09:00:13.429Z,94.42
2018-01-30T09:01:13.265Z,94.32
2018-01-30T09:02:13.212Z,94.79
2018-01-30T09:03:14.734Z,94.32
2018-01-30T09:04:13.392Z,94.70
2018-01-30T09:05:13.393Z,94.32
2018-01-30T09:06:14.017Z,94.42
2018-01-30T09:07:14.022Z,94.42
2018-01-30T09:08:21.213Z,94.42
2018-01-30T09:09:13.752Z,95.08
2018-01-30T09:10:14.829Z,94.98
2018-01-30T09:11:15.134Z,95.27
2018-01-30T09:13:21.084Z,94.13
2018-01-30T09:15:17.494Z,94.32
2018-01-30T09:16:13.425Z,94.79
2018-01-30T09:17:13.035Z,94.42
2018-01-30T09:18:14.133Z,94.79
2018-01-30T09:19:13.906Z,94.46
2018-01-30T09:20:16.018Z,94.27
2018-01-30T09:21:14.260Z,92.94
2018-01-30T09:22:14.432Z,92.94
2018-01-30T09:23:14.209Z,92.94
2018-01-30T09:24:13.192Z,91.85
2018-01-30T09:25:36.308Z,91.08
2018-01-30T09:26:37.256Z,90.61
2018-01-30T09:27:21.887Z,90.52
2018-01-30T09:28:14.770Z,90.52
2018-01-30T09:29:14.020Z,90.89
2018-01-30T09:30:13.196Z,90.99
2018-01-30T09:31:28.184Z,91.56
2018-01-30T09:32:14.247Z,91.85
2018-01-30T09:33:13.107Z,92.22
2018-01-30T09:34:13.177Z,91.37
2018-01-30T09:35:13.215Z,92.03
2018-01-30T09:36:13.069Z,91.94
2018-01-30T09:37:13.122Z,91.47
2018-01-30T09:38:13.062Z,91.28
2018-01-30T09:39:13.046Z,91.47
2018-01-30T09:40:13.029Z,91.75
2018-01-30T09:41:14.161Z,91.37
2018-01-30T09:42:13.218Z,91.37
2018-01-30T09:43:13.266Z,90.61
2018-01-30T09:44:13.194Z,91.18
2018-01-30T09:45:13.359Z,91.75
2018-01-30T09:46:14.030Z,90.61
2018-01-30T09:47:13.081Z,90.99
2018-01-30T09:48:13.356Z,90.89
2018-01-30T09:49:13.569Z,90.52
2018-01-30T09:50:13.073Z,90.56
2018-01-30T09:51:13.797Z,91.37
2018-01-30T09:52:14.318Z,90.89
2018-01-30T09:53:13.566Z,90.33
2018-01-30T09:54:13.549Z,90.33
2018-01-30T09:55:13.234Z,90.61
2018-01-30T09:56:13.771Z,89.47
2018-01-30T09:57:13.094Z,89.94
2018-01-30T09:58:13.159Z,90.52
2018-01-30T09:59:15.516Z,90.42
2018-01-30T10:00:14.518Z,90.42
2018-01-30T10:01:14.542Z,89.56
2018-01-30T10:02:13.218Z,90.04
2018-01-30T10:03:15.347Z,89.56
2018-01-30T10:04:13.273Z,89.47
2018-01-30T10:05:14.286Z,89.66
2018-01-30T10:06:14.673Z,89.37
2018-01-30T10:07:13.223Z,90.23
2018-01-30T10:08:13.490Z,90.80
2018-01-30T10:09:14.175Z,90.89
2018-01-30T10:10:14.075Z,90.56
2018-01-30T10:11:13.121Z,90.28
2018-01-30T10:12:16.306Z,90.33
2018-01-30T10:13:13.327Z,90.61
2018-01-30T10:14:13.168Z,90.70
2018-01-30T10:15:13.288Z,90.33
2018-01-30T10:16:13.456Z,90.28
2018-01-30T10:17:13.242Z,90.08
2018-01-30T10:18:13.175Z,89.70
2018-01-30T10:19:13.238Z,89.32
2018-01-30T10:20:13.905Z,89.23
2018-01-30T10:21:13.208Z,89.14
2018-01-30T10:22:13.171Z,89.14
2018-01-30T10:23:13.915Z,88.75
2018-01-30T10:24:13.925Z,88.56
2018-01-30T10:25:13.098Z,88.66
2018-01-30T10:26:13.184Z,89.89
2018-01-30T10:27:13.201Z,90.37
2018-01-30T10:28:13.183Z,90.37
2018-01-30T10:29:13.074Z,90.28
2018-01-30T10:30:13.223Z,89.99
2018-01-30T10:31:13.104Z,89.70
2018-01-30T10:32:13.374Z,89.89
2018-01-30T10:33:13.184Z,89.32
2018-01-30T10:34:14.091Z,88.75
2018-01-30T10:35:13.285Z,89.23
2018-01-30T10:36:14.279Z,89.32
2018-01-30T10:37:14.133Z,88.94
2018-01-30T10:38:13.171Z,89.89
2018-01-30T10:39:13.175Z,89.23
2018-01-30T10:40:13.908Z,88.94
2018-01-30T10:41:13.248Z,89.04
2018-01-30T10:42:13.906Z,88.28
2018-01-30T10:43:13.179Z,88.75
2018-01-30T10:44:13.214Z,88.46
2018-01-30T10:45:13.404Z,88.99
2018-01-30T10:46:13.509Z,88.32
2018-01-30T10:47:13.478Z,87.46
2018-01-30T10:48:14.476Z,86.90
2018-01-30T10:49:13.904Z,87.37
2018-01-30T10:50:13.155Z,87.65
2018-01-30T10:51:13.293Z,87.46
2018-01-30T10:52:13.281Z,88.37
2018-01-30T10:53:13.163Z,88.42
2018-01-30T10:54:13.219Z,88.46
2018-01-30T10:55:13.297Z,88.09
2018-01-30T10:56:13.495Z,88.28
2018-01-30T10:57:14.145Z,87.90
2018-01-30T10:58:13.184Z,88.75
2018-01-30T10:59:13.213Z,89.04
2018-01-30T11:00:13.261Z,88.75
2018-01-30T11:01:14.389Z,89.23
2018-01-30T11:02:13.565Z,88.94
2018-01-30T11:03:14.067Z,89.23
2018-01-30T11:04:13.458Z,89.04
2018-01-30T11:05:13.387Z,88.75
2018-01-30T11:06:13.323Z,88.75
2018-01-30T11:07:13.172Z,88.66
2018-01-30T11:08:13.292Z,88.66
2018-01-30T11:09:14.211Z,89.14
2018-01-30T11:10:13.973Z,89.14
2018-01-30T11:11:13.321Z,88.46
2018-01-30T11:12:13.735Z,87.75
2018-01-30T11:13:13.358Z,87.99
2018-01-30T11:14:13.208Z,88.70
2018-01-30T11:15:14.984Z,88.46
2018-01-30T11:16:13.573Z,88.66
2018-01-30T11:17:13.322Z,88.09
2018-01-30T11:18:13.229Z,88.37
2018-01-30T11:19:14.501Z,88.75
2018-01-30T11:20:13.158Z,89.04
2018-01-30T11:21:13.268Z,87.52
2018-01-30T11:22:13.206Z,87.42
2018-01-30T11:23:13.384Z,87.80
2018-01-30T11:24:14.274Z,88.09
2018-01-30T11:25:13.264Z,88.28
2018-01-30T11:26:13.495Z,87.37
2018-01-30T11:27:13.293Z,87.37
2018-01-30T11:28:13.258Z,87.08
2018-01-30T11:29:13.263Z,86.51
2018-01-30T11:30:13.467Z,86.70
2018-01-30T11:31:13.320Z,86.80
2018-01-30T11:32:13.254Z,85.41
2018-01-30T11:33:13.273Z,84.08
2018-01-30T11:34:13.304Z,83.13
2018-01-30T11:35:13.304Z,83.07
2018-01-30T11:36:13.455Z,83.22
2018-01-30T11:37:13.365Z,83.51
2018-01-30T11:38:13.258Z,83.32
2018-01-30T11:39:13.234Z,83.13
2018-01-30T11:40:13.343Z,83.65
2018-01-30T11:41:13.248Z,83.32
2018-01-30T11:42:13.269Z,83.18
2018-01-30T11:43:13.197Z,83.18
2018-01-30T11:44:13.211Z,83.32
2018-01-30T11:45:13.296Z,82.93
2018-01-30T11:46:13.313Z,82.84
2018-01-30T11:48:45.788Z,81.46
2018-01-30T11:49:45.998Z,79.83
2018-01-30T11:50:46.282Z,79.51
2018-01-30T11:51:45.574Z,80.36
2018-01-30T11:52:45.593Z,80.75
2018-01-30T11:53:45.649Z,80.84
2018-01-30T11:54:45.735Z,80.75
2018-01-30T11:55:45.640Z,81.51
2018-01-30T11:56:45.673Z,81.60
2018-01-30T11:57:45.804Z,82.08
2018-01-30T11:58:45.624Z,80.55
2018-01-30T11:59:45.646Z,80.84
2018-01-30T12:00:45.626Z,81.70
2018-01-30T12:01:45.813Z,80.79
2018-01-30T12:02:45.651Z,79.83
2018-01-30T12:03:45.668Z,80.12
2018-01-30T12:04:45.977Z,80.02
2018-01-30T12:07:18.087Z,78.78
2018-01-30T12:09:51.673Z,78.75
2018-01-30T12:10:51.494Z,79.80
2018-01-30T12:11:51.301Z,79.13
2018-01-30T12:12:51.566Z,78.37
2018-01-30T12:13:51.267Z,78.27
2018-01-30T12:14:51.308Z,77.83
2018-01-30T12:15:51.312Z,77.83
2018-01-30T12:16:51.368Z,78.65
2018-01-30T12:17:51.919Z,77.83
2018-01-30T12:18:51.390Z,76.79
2018-01-30T12:19:51.917Z,76.21
2018-01-30T12:20:51.504Z,76.56
2018-01-30T12:21:51.374Z,76.40
2018-01-30T12:22:54.311Z,77.89
2018-01-30T12:23:51.401Z,78.56
2018-01-30T12:24:51.342Z,78.85
2018-01-30T12:25:51.350Z,79.22
2018-01-30T12:26:51.372Z,79.13
2018-01-30T12:27:51.400Z,79.03
2018-01-30T12:28:56.568Z,79.03
2018-01-30T12:29:53.635Z,79.32
2018-01-30T12:30:51.546Z,79.03
2018-01-30T12:31:58.217Z,80.04
2018-01-30T12:32:51.426Z,79.85
2018-01-30T12:33:51.389Z,80.04
2018-01-30T12:34:51.363Z,81.03
2018-01-30T12:35:52.103Z,81.41
2018-01-30T12:36:51.322Z,81.41
2018-01-30T12:37:51.385Z,80.84
2018-01-30T12:38:51.733Z,79.99
2018-01-30T12:39:51.374Z,78.94
2018-01-30T12:40:51.351Z,78.52
2018-01-30T12:41:51.413Z,78.33
2018-01-30T12:42:51.364Z,78.90
2018-01-30T12:43:51.591Z,78.99
2018-01-30T12:44:52.790Z,79.66
2018-01-30T12:45:51.386Z,80.33
2018-01-30T12:46:51.399Z,80.13
2018-01-30T12:47:51.561Z,80.33
2018-01-30T12:48:52.856Z,80.23
2018-01-30T12:49:51.429Z,80.99
2018-01-30T12:50:51.568Z,80.52
2018-01-30T12:51:51.923Z,80.42
2018-01-30T12:52:51.439Z,79.94
2018-01-30T12:53:51.448Z,79.85
2018-01-30T12:54:51.361Z,80.80
2018-01-30T12:55:54.048Z,80.13
2018-01-30T12:56:51.436Z,79.75
2018-01-30T12:57:52.350Z,79.66
2018-01-30T12:58:51.374Z,79.57
2018-01-30T12:59:51.510Z,79.57